createdAt,value
2019-05-30T00:00:06.755Z,100902.24
2019-05-30T00:02:26.589Z,100898.73
2019-05-30T00:05:00.206Z,100897.63
2019-05-30T00:07:32.744Z,100899.31
2019-05-30T00:10:07.369Z,100903.30
2019-05-30T00:12:39.535Z,100899.89
2019-05-30T00:15:12.315Z,100897.69
2019-05-30T00:17:44.481Z,100901.23
2019-05-30T00:20:17.162Z,100896.71
2019-05-30T00:22:49.739Z,100894.92
2019-05-30T00:25:22.826Z,100894.92
2019-05-30T00:27:55.402Z,100887.66
2019-05-30T00:30:27.983Z,100891.84
2019-05-30T00:33:00.766Z,100893.69
2019-05-30T00:35:32.932Z,100892.53
2019-05-30T00:38:06.071Z,100890.27
2019-05-30T00:40:38.283Z,100886.12
2019-05-30T00:43:11.066Z,100888.39
2019-05-30T00:45:43.136Z,100895.92
2019-05-30T00:48:15.608Z,100897.50
2019-05-30T00:50:47.883Z,100893.81
2019-05-30T00:53:20.567Z,100901.37
2019-05-30T00:55:53.034Z,100898.88
2019-05-30T00:58:25.093Z,100894.13
2019-05-30T01:00:59.051Z,100896.76
2019-05-30T01:03:31.803Z,100882.92
2019-05-30T01:06:04.987Z,100886.30
2019-05-30T01:08:37.450Z,100889.48
2019-05-30T01:11:09.925Z,100891.03
2019-05-30T01:13:42.091Z,100886.81
2019-05-30T01:16:14.358Z,100887.80
2019-05-30T01:18:47.137Z,100878.78
2019-05-30T01:21:19.614Z,100874.94
2019-05-30T01:23:51.883Z,100875.52
2019-05-30T01:26:24.258Z,100876.28
2019-05-30T01:28:57.324Z,100878.80
2019-05-30T01:31:29.610Z,100880.16
2019-05-30T01:34:02.086Z,100875.84
2019-05-30T01:36:34.568Z,100879.20
2019-05-30T01:39:08.184Z,100877.06
2019-05-30T01:41:40.740Z,100875.92
2019-05-30T01:44:13.011Z,100876.11
2019-05-30T01:46:45.606Z,100873.77
2019-05-30T01:49:18.064Z,100874.75
2019-05-30T01:51:50.446Z,100873.66
2019-05-30T01:54:23.112Z,100874.75
2019-05-30T01:56:55.289Z,100875.72
2019-05-30T01:59:28.570Z,100870.13
2019-05-30T02:02:01.154Z,100876.89
2019-05-30T02:04:35.259Z,100882.81
2019-05-30T02:07:09.299Z,100884.19
2019-05-30T02:09:41.640Z,100885.13
2019-05-30T02:12:14.116Z,100891.44
2019-05-30T02:14:46.495Z,100888.17
2019-05-30T02:17:18.760Z,100892.57
2019-05-30T02:19:51.131Z,100904.86
2019-05-30T02:22:23.713Z,100900.59
2019-05-30T02:24:56.178Z,100904.23
2019-05-30T02:27:28.513Z,100898.30
2019-05-30T02:30:03.276Z,100906.79
2019-05-30T02:32:35.148Z,100909.66
2019-05-30T02:35:10.299Z,100909.52
2019-05-30T02:37:42.451Z,100911.00
2019-05-30T02:40:16.675Z,100916.58
2019-05-30T02:42:49.045Z,100914.11
2019-05-30T02:45:21.707Z,100910.34
2019-05-30T02:47:53.880Z,100919.36
2019-05-30T02:50:26.149Z,100918.36
2019-05-30T02:52:58.927Z,100920.66
2019-05-30T02:55:31.403Z,100919.03
2019-05-30T02:58:05.983Z,100911.81
2019-05-30T03:00:38.913Z,100926.84
2019-05-30T03:03:14.272Z,100923.93
2019-05-30T03:05:46.320Z,100916.44
2019-05-30T03:08:19.102Z,100922.04
2019-05-30T03:10:51.986Z,100918.54
2019-05-30T03:13:24.456Z,100918.14
2019-05-30T03:15:56.728Z,100919.95
2019-05-30T03:18:29.512Z,100919.84
2019-05-30T03:21:03.275Z,100923.55
2019-05-30T03:23:36.097Z,100913.61
2019-05-30T03:26:10.740Z,100914.63
2019-05-30T03:28:42.785Z,100913.13
2019-05-30T03:31:27.881Z,100914.02
2019-05-30T03:33:52.347Z,100910.20
2019-05-30T03:36:30.927Z,100905.98
2019-05-30T03:38:58.929Z,100914.83
2019-05-30T03:41:32.423Z,100916.88
2019-05-30T03:44:06.014Z,100919.73
2019-05-30T03:46:42.493Z,100920.23
2019-05-30T03:49:17.732Z,100919.52
2019-05-30T03:51:51.720Z,100922.02
2019-05-30T03:54:25.317Z,100919.77
2019-05-30T03:57:04.743Z,100918.37
2019-05-30T03:59:43.498Z,100922.20
2019-05-30T04:02:28.372Z,100926.88
2019-05-30T04:05:16.412Z,100917.67
2019-05-30T04:07:54.604Z,100911.55
2019-05-30T04:10:30.169Z,100918.91
2019-05-30T04:13:12.886Z,100926.16
2019-05-30T04:15:46.278Z,100927.09
2019-05-30T04:18:19.533Z,100936.28
2019-05-30T04:20:51.934Z,100942.81
2019-05-30T04:23:24.223Z,100947.11
2019-05-30T04:26:00.280Z,100945.87
2019-05-30T04:28:30.301Z,100947.38
2019-05-30T04:31:02.856Z,100945.39
2019-05-30T04:33:35.549Z,100944.41
2019-05-30T04:36:08.539Z,100951.06
2019-05-30T04:38:40.909Z,100946.63
2019-05-30T04:41:15.989Z,100954.05
2019-05-30T04:43:48.410Z,100949.73
2019-05-30T04:46:21.756Z,100949.03
2019-05-30T04:48:54.482Z,100942.65
2019-05-30T04:51:26.950Z,100942.65
2019-05-30T04:53:59.641Z,100942.70
2019-05-30T04:56:31.903Z,100939.66
2019-05-30T04:59:04.585Z,100940.20
2019-05-30T05:01:37.373Z,100938.28
2019-05-30T05:04:11.387Z,100934.95
2019-05-30T05:06:43.943Z,100939.77
2019-05-30T05:09:18.019Z,100943.53
2019-05-30T05:11:50.532Z,100940.71
2019-05-30T05:14:22.910Z,100942.36
2019-05-30T05:16:55.282Z,100942.53
2019-05-30T05:19:27.762Z,100943.80
2019-05-30T05:22:00.432Z,100945.79
2019-05-30T05:24:32.714Z,100954.46
2019-05-30T05:27:05.478Z,100953.56
2019-05-30T05:29:37.955Z,100954.92
2019-05-30T05:32:10.838Z,100966.45
2019-05-30T05:34:43.112Z,100954.80
2019-05-30T05:37:16.910Z,100956.28
2019-05-30T05:39:49.389Z,100957.53
2019-05-30T05:42:22.539Z,100957.39
2019-05-30T05:44:54.952Z,100957.84
2019-05-30T05:47:28.584Z,100964.70
2019-05-30T05:50:01.127Z,100951.54
2019-05-30T05:52:34.959Z,100964.70
2019-05-30T05:55:13.555Z,100957.53
2019-05-30T05:57:45.928Z,100963.84
2019-05-30T06:00:19.074Z,100962.23
2019-05-30T06:02:51.990Z,100959.51
2019-05-30T06:05:24.411Z,100951.95
2019-05-30T06:07:56.959Z,100959.76
2019-05-30T06:10:29.627Z,100958.64
2019-05-30T06:13:02.106Z,100955.92
2019-05-30T06:15:34.780Z,100960.25
2019-05-30T06:18:07.358Z,100954.25
2019-05-30T06:20:39.931Z,100962.78
2019-05-30T06:23:12.309Z,100947.88
2019-05-30T06:25:44.688Z,100949.20
2019-05-30T06:28:17.977Z,100951.31
2019-05-30T06:30:50.241Z,100957.05
2019-05-30T06:33:23.497Z,100952.16
2019-05-30T06:35:56.829Z,100956.08
2019-05-30T06:38:29.515Z,100953.22
2019-05-30T06:41:02.082Z,100957.86
2019-05-30T06:43:34.862Z,100963.21
2019-05-30T06:46:07.128Z,100960.91
2019-05-30T06:48:39.710Z,100963.78
2019-05-30T06:51:14.505Z,100968.71
2019-05-30T06:53:46.560Z,100963.50
2019-05-30T06:56:21.124Z,100961.14
2019-05-30T06:58:53.495Z,100958.92
2019-05-30T07:01:25.972Z,100963.27
2019-05-30T07:04:00.378Z,100960.35
2019-05-30T07:06:33.765Z,100971.61
2019-05-30T07:09:08.547Z,100964.81
2019-05-30T07:11:40.990Z,100971.67
2019-05-30T07:14:13.668Z,100967.06
2019-05-30T07:16:46.256Z,100969.13
2019-05-30T07:19:18.940Z,100972.37
2019-05-30T07:21:53.144Z,100970.06
2019-05-30T07:24:26.227Z,100969.42
2019-05-30T07:26:59.321Z,100964.90
2019-05-30T07:29:32.193Z,100968.71
2019-05-30T07:32:05.093Z,100964.36
2019-05-30T07:34:37.356Z,100965.66
2019-05-30T07:37:10.240Z,100964.11
2019-05-30T07:39:42.510Z,100964.96
2019-05-30T07:42:14.985Z,100954.69
2019-05-30T07:44:47.661Z,100959.03
2019-05-30T07:47:20.048Z,100956.81
2019-05-30T07:49:52.618Z,100961.67
2019-05-30T07:52:26.369Z,100960.42
2019-05-30T07:54:59.332Z,100958.59
2019-05-30T07:57:32.853Z,100973.63
2019-05-30T08:00:08.238Z,100964.06
2019-05-30T08:02:41.022Z,100967.81
2019-05-30T08:05:23.732Z,100969.48
2019-05-30T08:07:47.817Z,100967.77
2019-05-30T08:10:22.151Z,100968.20
2019-05-30T08:12:54.602Z,100975.28
2019-05-30T08:15:27.266Z,100979.07
2019-05-30T08:17:59.865Z,100969.73
2019-05-30T08:20:33.813Z,100966.88
2019-05-30T08:23:09.639Z,100966.97
2019-05-30T08:25:40.253Z,100966.47
2019-05-30T08:28:13.715Z,100959.47
2019-05-30T08:30:47.046Z,100958.83
2019-05-30T08:33:21.681Z,100960.44
2019-05-30T08:35:53.526Z,100960.99
2019-05-30T08:38:26.003Z,100965.66
2019-05-30T08:40:59.709Z,100958.53
2019-05-30T08:43:33.379Z,100955.52
2019-05-30T08:46:05.781Z,100964.59
2019-05-30T08:48:38.387Z,100963.88
2019-05-30T08:51:10.867Z,100959.20
2019-05-30T08:53:43.515Z,100965.63
2019-05-30T08:56:16.090Z,100962.58
2019-05-30T08:58:48.754Z,100968.84
2019-05-30T09:01:21.260Z,100966.70
2019-05-30T09:03:55.365Z,100963.55
2019-05-30T09:06:27.626Z,100973.48
2019-05-30T09:09:00.101Z,100969.50
2019-05-30T09:11:32.678Z,100967.39
2019-05-30T09:14:06.361Z,100960.62
2019-05-30T09:16:38.548Z,100960.20
2019-05-30T09:19:11.224Z,100967.38
2019-05-30T09:21:43.599Z,100960.25
2019-05-30T09:24:15.873Z,100961.56
2019-05-30T09:26:50.282Z,100965.21
2019-05-30T09:29:22.145Z,100965.67
2019-05-30T09:31:54.622Z,100966.56
2019-05-30T09:34:27.405Z,100963.41
2019-05-30T09:36:59.871Z,100970.73
2019-05-30T09:39:32.253Z,100967.36
2019-05-30T09:42:04.828Z,100963.23
2019-05-30T09:44:37.300Z,100967.73
2019-05-30T09:47:11.217Z,100958.59
2019-05-30T09:49:44.673Z,100964.91
2019-05-30T09:52:17.086Z,100957.00
2019-05-30T09:54:50.356Z,100960.39
2019-05-30T09:57:22.743Z,100951.20
2019-05-30T09:59:55.441Z,100956.16
2019-05-30T10:02:28.098Z,100952.72
2019-05-30T10:05:00.389Z,100948.25
2019-05-30T10:07:33.658Z,100942.45
2019-05-30T10:10:07.214Z,100943.30
2019-05-30T10:12:39.837Z,100944.02
2019-05-30T10:15:12.952Z,100943.98
2019-05-30T10:17:46.242Z,100941.74
2019-05-30T10:20:19.747Z,100938.16
2019-05-30T10:22:53.751Z,100944.00
2019-05-30T10:25:26.315Z,100941.25
2019-05-30T10:27:58.778Z,100940.95
2019-05-30T10:30:31.563Z,100943.31
2019-05-30T10:33:04.245Z,100940.90
2019-05-30T10:35:36.360Z,100940.57
2019-05-30T10:38:09.291Z,100942.13
2019-05-30T10:40:41.664Z,100942.45
2019-05-30T10:43:14.137Z,100949.48
2019-05-30T10:45:47.965Z,100949.14
2019-05-30T10:48:21.296Z,100948.77
2019-05-30T10:50:54.445Z,100946.05
2019-05-30T10:53:27.163Z,100945.35
2019-05-30T10:55:59.492Z,100950.16
2019-05-30T10:58:32.055Z,100944.98
2019-05-30T11:01:05.350Z,100946.73
2019-05-30T11:03:38.032Z,100946.05
2019-05-30T11:06:28.623Z,100947.09
2019-05-30T11:09:04.889Z,100941.27
2019-05-30T11:11:37.570Z,100935.10
2019-05-30T11:14:10.151Z,100941.25
2019-05-30T11:16:42.626Z,100946.04
2019-05-30T11:19:15.499Z,100950.53
2019-05-30T11:21:47.977Z,100945.71
2019-05-30T11:24:20.453Z,100945.52
2019-05-30T11:26:54.192Z,100948.09
2019-05-30T11:29:27.145Z,100948.13
2019-05-30T11:32:00.438Z,100950.48
2019-05-30T11:34:33.117Z,100948.42
2019-05-30T11:37:18.841Z,100949.63
2019-05-30T11:39:39.599Z,100952.20
2019-05-30T11:42:11.764Z,100949.98
2019-05-30T11:44:44.243Z,100952.52
2019-05-30T11:47:16.520Z,100947.73
2019-05-30T11:49:49.560Z,100948.95
2019-05-30T11:52:21.974Z,100952.04
2019-05-30T11:54:55.758Z,100944.31
2019-05-30T11:57:28.457Z,100952.36
2019-05-30T12:00:00.830Z,100941.58
2019-05-30T12:02:33.714Z,100940.05
2019-05-30T12:05:07.189Z,100940.20
2019-05-30T12:07:40.813Z,100945.83
2019-05-30T12:10:14.190Z,100944.58
2019-05-30T12:12:46.574Z,100942.42
2019-05-30T12:15:19.767Z,100945.52
2019-05-30T12:17:53.254Z,100943.30
2019-05-30T12:20:25.844Z,100944.58
2019-05-30T12:22:58.419Z,100936.10
2019-05-30T12:25:30.898Z,100941.78
2019-05-30T12:28:04.645Z,100942.78
2019-05-30T12:30:37.379Z,100936.13
2019-05-30T12:33:09.910Z,100940.56
2019-05-30T12:35:42.528Z,100936.46
2019-05-30T12:38:14.800Z,100930.83
2019-05-30T12:40:47.373Z,100937.14
2019-05-30T12:43:19.752Z,100930.98
2019-05-30T12:45:52.873Z,100925.88
2019-05-30T12:48:25.214Z,100927.56
2019-05-30T12:50:57.904Z,100932.71
2019-05-30T12:53:30.394Z,100935.25
2019-05-30T12:56:03.351Z,100937.85
2019-05-30T12:58:37.057Z,100934.89
2019-05-30T13:01:09.462Z,100936.78
2019-05-30T13:03:43.261Z,100940.40
2019-05-30T13:06:15.602Z,100937.83
2019-05-30T13:08:48.072Z,100934.57
2019-05-30T13:11:20.550Z,100942.27
2019-05-30T13:13:55.019Z,100948.13
2019-05-30T13:16:27.037Z,100944.31
2019-05-30T13:19:00.020Z,100945.90
2019-05-30T13:21:32.599Z,100953.27
2019-05-30T13:24:06.030Z,100947.06
2019-05-30T13:26:38.361Z,100943.97
2019-05-30T13:29:10.948Z,100948.09
2019-05-30T13:31:43.210Z,100949.11
2019-05-30T13:34:15.788Z,100953.58
2019-05-30T13:36:49.287Z,100947.41
2019-05-30T13:39:21.966Z,100947.77
2019-05-30T13:41:54.542Z,100940.40
2019-05-30T13:44:27.221Z,100937.66
2019-05-30T13:47:00.850Z,100935.10
2019-05-30T13:49:33.296Z,100937.14
2019-05-30T13:52:07.130Z,100935.09
2019-05-30T13:54:40.934Z,100934.05
2019-05-30T13:57:13.481Z,100936.62
2019-05-30T13:59:45.858Z,100930.83
2019-05-30T14:02:18.561Z,100933.03
2019-05-30T14:04:50.908Z,100927.56
2019-05-30T14:07:23.490Z,100934.36
2019-05-30T14:09:56.059Z,100929.84
2019-05-30T14:12:28.535Z,100932.29
2019-05-30T14:15:03.334Z,100925.78
2019-05-30T14:17:35.744Z,100929.04
2019-05-30T14:20:09.101Z,100930.45
2019-05-30T14:22:42.009Z,100922.42
2019-05-30T14:25:15.219Z,100923.95
2019-05-30T14:27:47.473Z,100919.16
2019-05-30T14:30:22.104Z,100917.11
2019-05-30T14:32:54.471Z,100919.56
2019-05-30T14:35:27.866Z,100915.29
2019-05-30T14:38:00.446Z,100913.94
2019-05-30T14:40:32.919Z,100908.55
2019-05-30T14:43:05.595Z,100911.62
2019-05-30T14:45:38.379Z,100912.59
2019-05-30T14:48:10.852Z,100921.41
2019-05-30T14:50:43.429Z,100921.34
2019-05-30T14:53:17.115Z,100916.16
2019-05-30T14:55:49.508Z,100919.72
2019-05-30T14:58:21.979Z,100921.02
2019-05-30T15:00:54.464Z,100928.22
2019-05-30T15:03:27.309Z,100920.39
2019-05-30T15:05:59.607Z,100929.62
2019-05-30T15:08:32.395Z,100930.95
2019-05-30T15:11:05.483Z,100925.80
2019-05-30T15:13:38.671Z,100929.74
2019-05-30T15:16:10.944Z,100929.80
2019-05-30T15:18:43.417Z,100931.47
2019-05-30T15:21:16.620Z,100932.14
2019-05-30T15:23:48.976Z,100924.55
2019-05-30T15:26:21.456Z,100923.81
2019-05-30T15:28:53.926Z,100919.03
2019-05-30T15:31:26.502Z,100919.03
2019-05-30T15:33:58.767Z,100925.80
2019-05-30T15:36:31.256Z,100921.03
2019-05-30T15:39:05.153Z,100920.83
2019-05-30T15:41:37.526Z,100915.82
2019-05-30T15:44:09.897Z,100916.06
2019-05-30T15:46:42.268Z,100912.70
2019-05-30T15:49:14.542Z,100908.84
2019-05-30T15:51:46.909Z,100901.56
2019-05-30T15:54:19.772Z,100905.42
2019-05-30T15:56:52.157Z,100897.85
2019-05-30T15:59:24.537Z,100891.59
2019-05-30T16:01:57.562Z,100896.33
2019-05-30T16:04:29.895Z,100897.98
2019-05-30T16:07:02.270Z,100906.62
2019-05-30T16:09:46.844Z,100908.77
2019-05-30T16:12:11.003Z,100912.80
2019-05-30T16:14:43.272Z,100909.06
2019-05-30T16:17:15.869Z,100912.98
2019-05-30T16:19:48.839Z,100913.80
2019-05-30T16:22:22.665Z,100917.08
2019-05-30T16:24:55.235Z,100916.59
2019-05-30T16:27:31.047Z,100908.21
2019-05-30T16:30:03.011Z,100917.27
2019-05-30T16:32:36.221Z,100917.75
2019-05-30T16:35:09.220Z,100914.23
2019-05-30T16:37:41.788Z,100920.98
2019-05-30T16:40:16.237Z,100927.34
2019-05-30T16:42:49.096Z,100927.95
2019-05-30T16:45:25.043Z,100924.11
2019-05-30T16:47:55.988Z,100920.55
2019-05-30T16:50:28.673Z,100922.80
2019-05-30T16:53:01.344Z,100925.73
2019-05-30T16:55:33.821Z,100918.66
2019-05-30T16:58:06.793Z,100923.31
2019-05-30T17:00:39.076Z,100922.44
2019-05-30T17:03:11.748Z,100921.95
2019-05-30T17:05:44.228Z,100919.55
2019-05-30T17:08:16.496Z,100924.63
2019-05-30T17:10:50.404Z,100923.86
2019-05-30T17:13:23.858Z,100924.36
2019-05-30T17:15:57.301Z,100929.69
2019-05-30T17:18:29.772Z,100926.47
2019-05-30T17:21:03.681Z,100929.00
2019-05-30T17:23:36.152Z,100929.65
2019-05-30T17:26:08.628Z,100925.57
2019-05-30T17:28:41.099Z,100926.94
2019-05-30T17:31:13.475Z,100926.05
2019-05-30T17:33:46.252Z,100919.58
2019-05-30T17:36:18.526Z,100920.97
2019-05-30T17:38:51.956Z,100924.02
2019-05-30T17:41:24.840Z,100923.88
2019-05-30T17:43:57.193Z,100928.31
2019-05-30T17:46:30.232Z,100933.86
2019-05-30T17:49:04.891Z,100929.63
2019-05-30T17:51:37.363Z,100936.69
2019-05-30T17:54:10.291Z,100938.36
2019-05-30T17:56:43.753Z,100939.98
2019-05-30T17:59:16.116Z,100947.11
2019-05-30T18:01:48.796Z,100948.25
2019-05-30T18:04:22.380Z,100953.35
2019-05-30T18:06:54.775Z,100955.22
2019-05-30T18:09:27.658Z,100949.48
2019-05-30T18:11:59.985Z,100957.80
2019-05-30T18:14:32.517Z,100954.99
2019-05-30T18:17:04.977Z,100956.17
2019-05-30T18:19:37.556Z,100950.69
2019-05-30T18:22:10.147Z,100957.38
2019-05-30T18:24:42.602Z,100961.73
2019-05-30T18:27:15.383Z,100968.55
2019-05-30T18:29:47.855Z,100967.34
2019-05-30T18:32:20.330Z,100961.81
2019-05-30T18:34:52.601Z,100967.72
2019-05-30T18:37:26.247Z,100975.81
2019-05-30T18:39:58.882Z,100974.88
2019-05-30T18:42:31.338Z,100975.64
2019-05-30T18:45:04.351Z,100975.64
2019-05-30T18:47:36.929Z,100970.84
2019-05-30T18:50:10.327Z,100973.45
2019-05-30T18:52:43.204Z,100977.52
2019-05-30T18:55:15.775Z,100974.59
2019-05-30T18:57:48.248Z,100970.41
2019-05-30T19:00:21.031Z,100969.56
2019-05-30T19:02:53.749Z,100966.11
2019-05-30T19:05:26.590Z,100971.90
2019-05-30T19:07:59.171Z,100972.52
2019-05-30T19:10:32.188Z,100969.07
2019-05-30T19:13:05.088Z,100975.08
2019-05-30T19:15:37.764Z,100976.35
2019-05-30T19:18:10.501Z,100972.52
2019-05-30T19:20:43.180Z,100970.93
2019-05-30T19:23:15.957Z,100969.55
2019-05-30T19:25:48.537Z,100975.51
2019-05-30T19:28:21.039Z,100976.00
2019-05-30T19:30:53.384Z,100981.08
2019-05-30T19:33:26.683Z,100977.48
2019-05-30T19:35:59.459Z,100983.05
2019-05-30T19:38:33.333Z,100976.13
2019-05-30T19:41:05.851Z,100978.22
2019-05-30T19:43:38.421Z,100978.72
2019-05-30T19:46:13.198Z,100977.86
2019-05-30T19:48:44.906Z,100976.23
2019-05-30T19:51:20.875Z,100971.44
2019-05-30T19:53:52.160Z,100967.03
2019-05-30T19:56:24.677Z,100966.53
2019-05-30T19:58:57.768Z,100963.58
2019-05-30T20:01:31.726Z,100965.17
2019-05-30T20:04:05.890Z,100968.27
2019-05-30T20:06:38.786Z,100967.16
2019-05-30T20:09:11.353Z,100970.13
2019-05-30T20:11:44.089Z,100970.48
2019-05-30T20:14:16.714Z,100975.05
2019-05-30T20:16:49.188Z,100977.77
2019-05-30T20:19:21.865Z,100980.63
2019-05-30T20:21:54.651Z,100981.98
2019-05-30T20:24:26.915Z,100984.92
2019-05-30T20:26:59.492Z,100990.34
2019-05-30T20:29:32.882Z,100996.50
2019-05-30T20:32:05.472Z,100996.73
2019-05-30T20:34:39.174Z,100993.05
2019-05-30T20:37:11.538Z,100990.23
2019-05-30T20:39:44.027Z,100987.39
2019-05-30T20:42:19.498Z,100989.72
2019-05-30T20:44:50.903Z,100986.31
2019-05-30T20:47:23.993Z,100984.06
2019-05-30T20:49:56.476Z,100987.38
2019-05-30T20:52:28.839Z,100985.63
2019-05-30T20:55:01.519Z,100985.39
2019-05-30T20:57:34.261Z,100986.73
2019-05-30T21:00:11.002Z,100984.64
2019-05-30T21:02:43.850Z,100980.20
2019-05-30T21:05:16.853Z,100980.94
2019-05-30T21:07:51.038Z,100974.17
2019-05-30T21:10:23.228Z,100974.03
2019-05-30T21:12:57.033Z,100977.64
2019-05-30T21:15:32.205Z,100981.72
2019-05-30T21:18:05.326Z,100985.23
2019-05-30T21:20:38.552Z,100975.87
2019-05-30T21:23:10.821Z,100971.09
2019-05-30T21:25:43.207Z,100967.89
2019-05-30T21:28:15.666Z,100968.26
2019-05-30T21:30:48.552Z,100971.58
2019-05-30T21:33:21.283Z,100978.42
2019-05-30T21:35:54.169Z,100968.58
2019-05-30T21:38:26.484Z,100970.14
2019-05-30T21:40:59.064Z,100968.08
2019-05-30T21:43:31.737Z,100968.46
2019-05-30T21:46:04.112Z,100968.87
2019-05-30T21:48:36.379Z,100962.97
2019-05-30T21:51:08.859Z,100965.42
2019-05-30T21:53:41.640Z,100966.49
2019-05-30T21:56:15.138Z,100971.97
2019-05-30T21:58:48.318Z,100962.55
2019-05-30T22:01:26.968Z,100968.73
2019-05-30T22:04:00.361Z,100964.68
2019-05-30T22:06:32.714Z,100966.28
2019-05-30T22:09:07.693Z,100958.53
2019-05-30T22:11:40.017Z,100957.78
2019-05-30T22:14:12.489Z,100956.89
2019-05-30T22:16:45.889Z,100969.27
2019-05-30T22:19:18.468Z,100963.86
2019-05-30T22:21:52.212Z,100959.20
2019-05-30T22:24:24.757Z,100964.15
2019-05-30T22:26:57.011Z,100967.78
2019-05-30T22:29:29.491Z,100965.32
2019-05-30T22:32:02.778Z,100963.89
2019-05-30T22:34:35.361Z,100961.16
2019-05-30T22:37:07.829Z,100962.55
2019-05-30T22:39:40.513Z,100963.11
2019-05-30T22:42:13.193Z,100969.19
2019-05-30T22:44:46.054Z,100969.45
2019-05-30T22:47:18.548Z,100969.69
2019-05-30T22:49:51.125Z,100973.14
2019-05-30T22:52:26.055Z,100970.65
2019-05-30T22:54:59.263Z,100970.94
2019-05-30T22:57:31.521Z,100966.72
2019-05-30T23:00:06.961Z,100970.53
2019-05-30T23:02:40.360Z,100967.92
2019-05-30T23:05:13.756Z,100967.57
2019-05-30T23:07:47.259Z,100975.17
2019-05-30T23:10:20.548Z,100971.67
2019-05-30T23:12:54.063Z,100972.34
2019-05-30T23:15:26.312Z,100971.08
2019-05-30T23:17:58.787Z,100962.97
2019-05-30T23:20:31.159Z,100963.63
2019-05-30T23:23:03.528Z,100955.27
2019-05-30T23:25:35.700Z,100958.87
2019-05-30T23:28:08.172Z,100950.62
2019-05-30T23:30:40.572Z,100950.31
2019-05-30T23:33:12.916Z,100954.36
2019-05-30T23:35:45.080Z,100951.22
2019-05-30T23:38:17.656Z,100946.91
2019-05-30T23:40:51.022Z,100942.31
2019-05-30T23:43:23.222Z,100941.80
2019-05-30T23:45:55.779Z,100944.85
2019-05-30T23:48:28.281Z,100939.64
2019-05-30T23:51:00.545Z,100946.13
2019-05-30T23:53:33.428Z,100936.78
2019-05-30T23:56:05.796Z,100935.67
2019-05-30T23:58:38.476Z,100930.87
